Time;durP1;ratioP1;P1;durP2;ratioP2;P2;SDS_P1;SDS_P2;PMS_P1;PMS_P2;Temp;Humidity;BMP_temperature;BMP_pressure;BME280_temperature;BME280_humidity;BME280_pressure;Samples;Min_cycle;Max_cycle;Signal;HPM_P1;HPM_P2
2022/03/24 00:01:53;;;;;;;22.95;11.32;;;;;;;3.90;46.81;95496.44;4961497;28;20026;-91
2022/03/24 00:04:19;;;;;;;21.00;11.13;;;;;;;3.87;47.09;95489.06;4945501;28;20030;-91
2022/03/24 00:06:44;;;;;;;24.83;11.95;;;;;;;3.94;46.68;95484.69;4961250;28;20089;-91
2022/03/24 00:09:10;;;;;;;21.23;11.18;;;;;;;4.16;45.42;95486.28;4945166;28;20030;-90
2022/03/24 00:11:35;;;;;;;22.08;10.57;;;;;;;4.57;44.18;95479.31;4960994;28;20034;-92
2022/03/24 00:14:01;;;;;;;24.63;11.60;;;;;;;4.48;45.05;95484.69;4944816;28;20085;-91
2022/03/24 00:16:26;;;;;;;21.27;11.07;;;;;;;4.55;44.01;95474.31;4945166;28;20503;-92
2022/03/24 00:18:52;;;;;;;21.67;11.25;;;;;;;4.61;43.41;95475.31;4945083;28;20035;-91
2022/03/24 00:21:18;;;;;;;22.13;11.30;;;;;;;4.68;43.12;95476.13;4945092;28;20035;-92
2022/03/24 00:23:43;;;;;;;24.88;11.65;;;;;;;4.76;43.49;95468.09;4961021;28;20054;-92
2022/03/24 00:26:09;;;;;;;20.90;10.15;;;;;;;5.12;41.96;95476.41;4960887;28;20026;-91
2022/03/24 00:28:34;;;;;;;19.98;9.85;;;;;;;4.89;43.33;95475.09;4945099;28;20027;-92
2022/03/24 00:31:01;;;;;;;20.95;11.10;;;;;;;4.81;42.51;95468.31;4961025;28;20026;-92
2022/03/24 00:33:27;;;;;;;21.35;10.90;;;;;;;4.75;43.11;95470.91;4960979;28;20037;-91
2022/03/24 00:35:52;;;;;;;23.02;10.60;;;;;;;4.58;43.72;95468.72;4961112;28;20439;-91
2022/03/24 00:38:18;;;;;;;26.40;11.85;;;;;;;4.37;44.99;95469.72;4960699;28;20035;-91
2022/03/24 00:40:44;;;;;;;20.40;10.70;;;;;;;4.14;45.66;95464.94;4944851;28;20027;-91
2022/03/24 00:43:10;;;;;;;19.77;9.93;;;;;;;4.07;44.87;95467.53;4944840;28;20031;-92
2022/03/24 00:45:36;;;;;;;20.35;10.30;;;;;;;3.99;44.76;95471.13;4961387;28;20034;-91
2022/03/24 00:48:02;;;;;;;22.15;9.88;;;;;;;4.26;43.62;95465.16;4948424;28;20085;-91
2022/03/24 00:50:27;;;;;;;23.35;10.43;;;;;;;4.31;43.07;95465.34;4948407;28;20114;-91
2022/03/24 00:52:53;;;;;;;20.00;9.82;;;;;;;4.30;43.61;95463.75;4948289;28;20340;-91
2022/03/24 00:55:20;;;;;;;25.67;10.35;;;;;;;4.17;43.98;95462.75;4964362;28;20030;-90
2022/03/24 00:57:55;;;;;;;18.65;9.88;;;;;;;4.01;45.03;95463.94;4964137;28;20031;-91
2022/03/24 01:00:24;;;;;;;15.90;9.55;;;;;;;4.01;43.90;95461.34;4948905;28;20053;-91
2022/03/24 01:02:51;;;;;;;18.02;9.27;;;;;;;4.19;43.50;95457.38;4948267;28;20027;-92
2022/03/24 01:05:18;;;;;;;17.55;9.25;;;;;;;4.32;43.36;95449.59;4964218;28;20023;-92
2022/03/24 01:07:44;;;;;;;18.75;8.73;;;;;;;4.01;44.07;95453.56;4963955;28;20137;-90
2022/03/24 01:10:11;;;;;;;21.02;9.60;;;;;;;4.08;43.53;95445.78;4964201;28;20027;-91
2022/03/24 01:12:39;;;;;;;18.95;9.75;;;;;;;4.26;43.16;95439.22;4963891;28;20144;-91
2022/03/24 01:15:07;;;;;;;21.92;9.38;;;;;;;4.07;44.04;95442.41;4964099;28;20034;-91
2022/03/24 01:17:33;;;;;;;20.65;10.02;;;;;;;3.99;44.45;95434.81;4950107;29;20055;-91
2022/03/24 01:19:59;;;;;;;18.92;9.38;;;;;;;3.99;43.82;95437.41;4943379;28;20348;-90
2022/03/24 01:22:24;;;;;;;17.00;8.77;;;;;;;4.08;43.31;95428.44;4947207;28;20037;-92
2022/03/24 01:24:50;;;;;;;20.70;9.50;;;;;;;4.26;42.49;95427.03;4963553;28;20027;-91
2022/03/24 01:27:16;;;;;;;25.05;9.32;;;;;;;4.28;42.65;95432.81;4952533;29;20311;-92
2022/03/24 01:29:42;;;;;;;18.95;9.25;;;;;;;4.32;42.34;95430.63;4909796;29;20495;-90
2022/03/24 01:32:08;;;;;;;19.23;9.13;;;;;;;4.20;42.56;95433.03;4925552;29;20201;-92
2022/03/24 01:34:38;;;;;;;20.25;9.98;;;;;;;4.14;44.50;95429.44;4937875;28;20033;-93
2022/03/24 01:37:05;;;;;;;17.92;9.20;;;;;;;3.87;44.95;95426.03;4947465;28;20081;-90
2022/03/24 01:39:32;;;;;;;18.60;9.07;;;;;;;3.72;44.95;95426.22;4947870;28;20030;-92
2022/03/24 01:41:57;;;;;;;18.98;9.85;;;;;;;3.62;44.96;95429.22;4963498;28;20022;-91
2022/03/24 01:44:23;;;;;;;18.85;8.98;;;;;;;3.50;45.82;95432.38;4947423;28;20034;-92
2022/03/24 01:47:02;;;;;;;20.15;9.25;;;;;;;3.35;45.61;95429.16;4947471;28;20026;-90
2022/03/24 01:49:39;;;;;;;19.63;9.32;;;;;;;3.34;45.91;95428.31;4963666;28;20023;-92
2022/03/24 01:52:07;;;;;;;19.33;9.95;;;;;;;3.39;44.32;95431.16;4963352;28;20444;-91
2022/03/24 01:54:33;;;;;;;19.42;8.85;;;;;;;3.51;43.64;95427.97;4947176;28;20031;-92
2022/03/24 01:56:59;;;;;;;25.05;8.95;;;;;;;3.61;44.06;95432.78;4962888;28;20077;-91
2022/03/24 01:59:25;;;;;;;21.50;8.63;;;;;;;3.64;43.90;95424.63;4963121;28;20113;-90
2022/03/24 02:01:51;;;;;;;16.33;7.57;;;;;;;3.70;42.56;95423.03;4962926;28;20030;-92
2022/03/24 02:04:19;;;;;;;16.48;8.48;;;;;;;4.24;41.65;95416.88;4947308;28;20026;-91
2022/03/24 02:06:45;;;;;;;22.77;8.10;;;;;;;4.39;41.19;95414.06;4963114;28;20077;-92
2022/03/24 02:09:11;;;;;;;17.20;7.90;;;;;;;4.09;42.59;95413.69;4962934;28;20027;-90
2022/03/24 02:11:37;;;;;;;13.98;8.25;;;;;;;4.09;41.77;95408.50;4962672;28;20081;-91
2022/03/24 02:14:04;;;;;;;16.08;7.78;;;;;;;3.94;42.44;95416.47;4962822;28;20031;-92
2022/03/24 02:16:35;;;;;;;12.85;7.57;;;;;;;3.77;42.55;95409.09;4962782;28;20030;-90
2022/03/24 02:19:18;;;;;;;18.48;8.38;;;;;;;4.21;41.37;95399.09;4962663;28;20053;-91
2022/03/24 02:21:45;;;;;;;16.83;7.90;;;;;;;4.66;40.38;95405.41;4963335;28;20027;-91
2022/03/24 02:24:13;;;;;;;15.38;7.65;;;;;;;4.47;40.74;95407.06;4962525;28;20026;-90
2022/03/24 02:26:40;;;;;;;17.05;8.52;;;;;;;4.38;40.70;95407.28;4946788;28;20035;-92
2022/03/24 02:32:28;;;;;;;17.95;7.60;;;;;;;4.61;40.59;95402.63;4979691;28;20046;-92
2022/03/24 02:34:54;;;;;;;17.92;7.93;;;;;;;4.67;40.05;95404.44;4962184;28;20023;-92
2022/03/24 02:37:22;;;;;;;15.95;7.60;;;;;;;4.64;39.86;95405.63;4962721;28;20045;-90
2022/03/24 02:39:56;;;;;;;13.32;7.55;;;;;;;4.49;40.71;95408.44;4962502;28;20031;-91
2022/03/24 02:42:25;;;;;;;18.45;8.70;;;;;;;4.30;41.10;95401.50;4946602;28;20121;-91
2022/03/24 02:44:57;;;;;;;19.77;9.73;;;;;;;4.21;42.00;95400.91;4962633;28;20117;-91
2022/03/24 02:47:23;;;;;;;18.20;7.88;;;;;;;3.94;42.40;95406.88;4946287;28;20019;-91
2022/03/24 02:49:50;;;;;;;14.73;7.47;;;;;;;4.09;41.41;95403.31;4962099;28;20443;-91
2022/03/24 02:52:16;;;;;;;19.65;8.15;;;;;;;3.97;41.52;95405.69;4945986;28;20023;-91
2022/03/24 02:54:42;;;;;;;14.95;7.93;;;;;;;4.00;42.11;95407.09;4946334;28;20032;-91
2022/03/24 02:57:08;;;;;;;14.20;7.43;;;;;;;3.68;43.43;95410.25;4946282;28;20088;-92
2022/03/24 02:59:34;;;;;;;22.75;7.15;;;;;;;3.79;42.06;95401.91;4961998;28;20026;-90
2022/03/24 03:02:02;;;;;;;17.20;8.05;;;;;;;3.64;42.33;95403.88;4961840;28;20458;-91
2022/03/24 03:04:29;;;;;;;17.20;8.60;;;;;;;3.48;43.04;95411.03;4961693;28;20471;-91
2022/03/24 03:06:55;;;;;;;19.10;7.97;;;;;;;3.63;41.97;95410.06;4945608;28;20129;-92
2022/03/24 03:09:24;;;;;;;15.48;8.02;;;;;;;3.70;42.09;95402.31;4961445;28;20507;-91
2022/03/24 03:11:52;;;;;;;12.73;7.00;;;;;;;3.73;42.47;95407.91;4961694;28;20073;-90
2022/03/24 03:14:18;;;;;;;14.18;7.45;;;;;;;3.67;41.67;95401.72;4946195;28;20030;-90
2022/03/24 03:16:44;;;;;;;17.73;8.02;;;;;;;3.84;42.02;95406.50;4961842;28;20026;-91
2022/03/24 03:19:11;;;;;;;14.27;7.78;;;;;;;3.71;41.95;95402.09;4978740;28;20121;-92
2022/03/24 03:21:37;;;;;;;13.05;7.25;;;;;;;4.02;41.55;95399.91;4961389;28;20060;-90
2022/03/24 03:24:07;;;;;;;16.10;7.20;;;;;;;3.68;42.56;95407.69;4961603;28;20034;-90
2022/03/24 03:26:32;;;;;;;13.75;7.43;;;;;;;3.52;42.93;95411.47;4959379;28;20034;-90
2022/03/24 03:28:58;;;;;;;14.35;7.45;;;;;;;3.61;42.58;95409.47;4961177;28;20035;-90
2022/03/24 03:31:24;;;;;;;17.52;7.57;;;;;;;3.51;42.18;95415.81;4959546;28;20407;-91
2022/03/24 03:33:52;;;;;;;15.13;7.50;;;;;;;3.34;41.91;95412.78;4953200;28;20030;-90
2022/03/24 03:36:19;;;;;;;21.83;7.43;;;;;;;3.36;42.82;95415.97;4945670;28;20045;-91
2022/03/24 03:38:47;;;;;;;16.73;8.10;;;;;;;3.43;42.82;95421.19;4936022;29;20036;-91
2022/03/24 03:41:14;;;;;;;15.88;7.13;;;;;;;3.62;41.50;95411.06;4939687;28;20149;-90
2022/03/24 03:43:44;;;;;;;12.85;6.22;;;;;;;4.03;40.11;95417.88;4955633;28;20034;-90
2022/03/24 03:46:10;;;;;;;17.33;7.03;;;;;;;4.00;40.54;95415.66;4961289;28;20037;-91
2022/03/24 03:48:37;;;;;;;13.70;7.45;;;;;;;4.18;40.05;95407.28;4961244;28;20068;-91
2022/03/24 03:51:04;;;;;;;13.50;6.95;;;;;;;4.22;40.11;95412.88;4961263;28;20035;-91
2022/03/24 03:53:41;;;;;;;12.88;6.93;;;;;;;4.11;39.94;95409.09;4945339;28;20117;-89
2022/03/24 03:56:07;;;;;;;13.55;6.47;;;;;;;4.05;39.94;95409.88;4945993;28;20041;-91
2022/03/24 03:58:36;;;;;;;15.00;6.90;;;;;;;4.01;39.82;95409.47;4960831;28;20441;-90
2022/03/24 04:01:06;;;;;;;11.73;6.18;;;;;;;4.01;39.92;95406.88;4945738;28;20034;-90
2022/03/24 04:03:35;;;;;;;14.80;6.07;;;;;;;3.96;39.62;95411.88;4960747;28;20099;-91
2022/03/24 04:06:12;;;;;;;13.88;5.72;;;;;;;3.73;42.00;95405.31;4930233;29;20126;-91
2022/03/24 04:08:39;;;;;;;13.75;6.30;;;;;;;3.66;41.61;95412.25;4926308;29;20131;-89
2022/03/24 04:11:07;;;;;;;20.33;7.15;;;;;;;3.57;42.72;95397.88;4926200;29;20035;-90
2022/03/24 04:13:34;;;;;;;16.23;6.22;;;;;;;3.49;41.23;95401.47;4941994;29;20035;-92
2022/03/24 04:16:01;;;;;;;9.48;5.63;;;;;;;3.57;40.42;95408.25;4941986;29;20444;-91
2022/03/24 04:19:10;;;;;;;12.13;5.88;;;;;;;3.50;40.96;95401.28;4941653;29;20031;-91
2022/03/24 04:21:36;;;;;;;11.25;6.03;;;;;;;3.52;41.00;95396.69;4945402;29;20031;-91
2022/03/24 04:24:42;;;;;;;11.85;6.10;;;;;;;3.47;40.72;95398.28;4929727;29;20031;-90
2022/03/24 04:27:07;;;;;;;10.85;6.18;;;;;;;3.23;41.27;95398.63;4945394;29;20035;-90
2022/03/24 04:29:33;;;;;;;12.25;5.88;;;;;;;3.22;42.05;95397.03;4945395;29;20038;-92
2022/03/24 04:31:58;;;;;;;13.32;6.40;;;;;;;3.02;42.84;95394.38;4929433;29;20038;-90
2022/03/24 04:34:24;;;;;;;11.82;6.25;;;;;;;2.98;42.62;95400.94;4929470;29;20330;-90
2022/03/24 04:36:49;;;;;;;12.43;6.10;;;;;;;2.93;41.56;95396.31;4929633;29;20031;-91
2022/03/24 04:39:15;;;;;;;11.07;5.80;;;;;;;3.02;41.89;95394.38;4929363;29;20433;-90
2022/03/24 04:41:41;;;;;;;19.80;6.65;;;;;;;3.02;41.67;95398.75;4929434;29;20447;-91
2022/03/24 04:44:07;;;;;;;12.98;5.75;;;;;;;3.06;40.85;95392.97;4945139;29;20038;-91
2022/03/24 04:46:33;;;;;;;12.98;6.30;;;;;;;3.14;41.59;95393.81;4929601;29;20034;-89
2022/03/24 04:48:58;;;;;;;12.55;6.00;;;;;;;3.27;40.90;95398.22;4929388;29;20032;-91
2022/03/24 04:51:23;;;;;;;12.75;6.13;;;;;;;3.13;41.56;95400.00;4929012;29;20038;-91
2022/03/24 04:53:49;;;;;;;11.88;6.03;;;;;;;2.96;41.78;95395.94;4944934;29;20111;-90
2022/03/24 04:56:16;;;;;;;14.85;6.38;;;;;;;2.97;42.06;95394.16;4929175;29;20035;-90
2022/03/24 04:58:51;;;;;;;11.18;5.95;;;;;;;2.99;42.68;95393.94;4932640;28;20031;-90
2022/03/24 05:01:17;;;;;;;15.40;5.57;;;;;;;2.91;42.23;95400.91;4964064;28;20045;-90
2022/03/24 05:03:46;;;;;;;11.98;5.43;;;;;;;2.76;42.01;95395.06;4947926;28;20026;-90
2022/03/24 05:06:12;;;;;;;11.95;6.03;;;;;;;2.83;41.94;95395.88;4948474;28;20058;-90
2022/03/24 05:08:38;;;;;;;12.15;5.60;;;;;;;3.00;41.88;95395.53;4963512;28;20432;-90
2022/03/24 05:11:03;;;;;;;13.02;6.20;;;;;;;2.87;41.63;95397.13;4948104;28;20033;-90
2022/03/24 05:13:29;;;;;;;12.35;6.07;;;;;;;2.94;42.56;95397.13;4980295;28;20027;-91
2022/03/24 05:15:56;;;;;;;11.95;5.25;;;;;;;2.90;42.01;95399.31;4947861;28;20335;-90
2022/03/24 05:18:24;;;;;;;13.35;5.90;;;;;;;3.10;41.16;95401.16;4963958;28;20038;-91
2022/03/24 05:20:50;;;;;;;11.63;6.18;;;;;;;3.03;41.16;95403.72;4963993;28;20030;-91
2022/03/24 05:23:15;;;;;;;10.63;5.72;;;;;;;3.16;41.00;95403.00;4963821;28;20129;-91
2022/03/24 05:25:41;;;;;;;10.98;5.00;;;;;;;3.71;39.57;95403.91;4964117;28;20113;-90
2022/03/24 05:28:07;;;;;;;11.13;5.30;;;;;;;3.86;38.88;95412.28;4963518;28;20033;-91
2022/03/24 05:30:33;;;;;;;12.15;5.82;;;;;;;3.78;40.01;95402.91;4948252;29;20074;-91
2022/03/24 05:32:58;;;;;;;13.32;5.93;;;;;;;3.50;41.60;95400.47;4924435;29;20449;-90
2022/03/24 05:35:24;;;;;;;11.27;5.28;;;;;;;3.63;40.32;95415.25;4941140;29;20028;-90
2022/03/24 05:37:49;;;;;;;13.38;5.53;;;;;;;3.78;39.61;95407.28;4924935;29;20038;-90
2022/03/24 05:40:15;;;;;;;13.90;5.38;;;;;;;4.10;38.06;95413.47;4924494;29;20032;-90
2022/03/24 05:42:40;;;;;;;10.68;4.95;;;;;;;4.58;37.33;95408.25;4925273;29;20036;-90
2022/03/24 05:45:06;;;;;;;9.73;5.00;;;;;;;5.12;36.06;95408.06;4924805;29;20082;-89
2022/03/24 05:47:31;;;;;;;12.13;5.15;;;;;;;5.35;35.45;95412.75;4909393;29;20031;-89
2022/03/24 05:49:57;;;;;;;12.43;5.40;;;;;;;5.56;34.88;95421.22;4924690;29;20063;-89
2022/03/24 05:52:22;;;;;;;10.73;5.30;;;;;;;5.74;34.67;95425.72;4940772;29;20031;-89
2022/03/24 05:54:48;;;;;;;9.13;5.20;;;;;;;5.76;34.94;95413.31;4924930;29;20468;-90
2022/03/24 05:57:13;;;;;;;8.82;5.13;;;;;;;5.67;35.40;95415.38;4924564;29;20031;-89
2022/03/24 05:59:39;;;;;;;10.18;4.97;;;;;;;5.77;34.86;95414.91;4924487;29;20061;-89
2022/03/24 06:02:05;;;;;;;10.90;5.20;;;;;;;5.43;36.55;95412.50;4940574;29;20030;-89
2022/03/24 06:04:31;;;;;;;12.40;4.68;;;;;;;5.21;37.85;95420.63;4937067;29;20037;-89
2022/03/24 06:06:57;;;;;;;10.73;5.65;;;;;;;5.11;38.25;95415.06;4953850;28;20042;-89
2022/03/24 06:09:23;;;;;;;11.35;5.93;;;;;;;5.08;39.52;95421.44;4946821;28;20085;-90
2022/03/24 06:11:48;;;;;;;10.95;5.50;;;;;;;5.05;39.31;95418.50;4962823;28;20027;-89
2022/03/24 06:14:14;;;;;;;12.73;6.38;;;;;;;5.05;39.58;95424.47;4962881;28;20058;-89
2022/03/24 06:16:42;;;;;;;11.52;5.90;;;;;;;5.06;39.17;95430.47;4946797;28;20085;-89
2022/03/24 06:19:30;;;;;;;11.55;6.18;;;;;;;5.20;39.07;95428.59;4947031;28;20339;-88
2022/03/24 06:21:56;;;;;;;11.52;6.15;;;;;;;5.33;38.24;95431.16;4979523;28;20038;-90
2022/03/24 06:24:21;;;;;;;12.10;6.25;;;;;;;5.26;38.81;95432.19;4962414;28;20035;-90
2022/03/24 06:26:47;;;;;;;11.07;5.80;;;;;;;5.32;39.84;95428.78;4962416;28;20041;-90
2022/03/24 06:29:13;;;;;;;9.40;5.47;;;;;;;5.35;39.64;95429.13;4962345;28;20428;-89
2022/03/24 06:31:40;;;;;;;14.02;6.25;;;;;;;5.43;40.36;95435.09;4944923;28;20403;-90
2022/03/24 06:34:07;;;;;;;11.82;5.72;;;;;;;5.43;41.07;95433.28;4943111;29;20031;-89
2022/03/24 06:36:32;;;;;;;10.32;6.00;;;;;;;5.47;40.66;95433.69;4943210;29;20031;-90
2022/03/24 06:38:58;;;;;;;14.43;6.70;;;;;;;5.48;40.01;95424.88;4957959;29;20035;-89
2022/03/24 06:41:24;;;;;;;13.18;6.32;;;;;;;5.51;40.93;95429.66;4923853;29;20035;-89
2022/03/24 06:43:49;;;;;;;14.13;6.30;;;;;;;5.56;40.98;95429.84;4923144;29;20500;-90
2022/03/24 06:46:15;;;;;;;11.65;6.50;;;;;;;5.70;40.72;95433.16;4908480;29;20035;-91
2022/03/24 06:48:40;;;;;;;13.98;6.55;;;;;;;5.73;40.62;95427.53;4908066;29;20123;-90
2022/03/24 06:51:06;;;;;;;14.32;7.15;;;;;;;5.77;41.18;95433.91;4923872;29;20031;-89
2022/03/24 06:53:32;;;;;;;12.90;6.55;;;;;;;5.76;41.00;95436.72;4941362;29;20042;-90
2022/03/24 06:55:58;;;;;;;14.07;6.90;;;;;;;5.88;40.90;95429.03;4926849;29;20082;-91
2022/03/24 06:58:24;;;;;;;13.00;6.88;;;;;;;5.90;42.45;95427.81;4927071;29;20117;-90
2022/03/24 07:00:50;;;;;;;11.68;6.22;;;;;;;5.89;42.48;95436.63;4926568;29;20096;-90
2022/03/24 07:03:15;;;;;;;12.63;6.35;;;;;;;6.02;41.10;95435.75;4926762;29;20035;-90
2022/03/24 07:05:41;;;;;;;19.65;6.25;;;;;;;6.15;41.94;95434.06;4926709;29;20048;-89
2022/03/24 07:08:08;;;;;;;9.85;6.03;;;;;;;6.17;43.28;95425.03;4942390;29;20031;-90
2022/03/24 07:10:34;;;;;;;13.52;6.50;;;;;;;6.25;43.52;95433.59;4942204;29;20108;-90
2022/03/24 07:12:59;;;;;;;16.02;6.38;;;;;;;6.32;43.53;95432.53;4926810;29;20068;-89
2022/03/24 07:15:26;;;;;;;11.88;5.93;;;;;;;6.28;42.66;95428.75;4927057;29;20070;-89
2022/03/24 07:17:52;;;;;;;11.30;6.25;;;;;;;6.33;42.50;95438.53;4942407;29;20042;-89
2022/03/24 07:20:18;;;;;;;13.38;6.47;;;;;;;6.43;44.19;95435.44;4941972;29;20500;-91
2022/03/24 07:22:46;;;;;;;12.27;6.50;;;;;;;6.55;42.22;95430.34;4942211;29;20038;-90
2022/03/24 07:25:11;;;;;;;15.07;6.65;;;;;;;6.69;40.86;95431.00;4926272;29;20094;-89
2022/03/24 07:27:37;;;;;;;13.15;5.88;;;;;;;6.80;40.22;95425.06;4942208;29;20035;-89
2022/03/24 07:30:04;;;;;;;9.15;5.40;;;;;;;6.82;41.58;95430.84;4942000;29;20035;-89
2022/03/24 07:32:29;;;;;;;12.27;6.20;;;;;;;6.88;41.33;95432.59;4941848;29;20042;-90
2022/03/24 07:34:55;;;;;;;13.50;6.85;;;;;;;7.15;40.00;95434.91;4941968;29;20035;-90
2022/03/24 07:37:20;;;;;;;10.85;6.25;;;;;;;7.12;39.85;95432.72;4941699;29;20348;-89
2022/03/24 07:39:46;;;;;;;14.20;7.05;;;;;;;7.29;38.49;95438.16;4926204;29;20097;-90
2022/03/24 07:42:15;;;;;;;11.77;6.75;;;;;;;7.39;38.84;95437.63;4942253;29;20034;-89
2022/03/24 07:44:41;;;;;;;11.00;6.43;;;;;;;7.45;38.98;95433.34;4942928;29;20035;-90
2022/03/24 07:47:06;;;;;;;13.68;6.55;;;;;;;7.57;39.69;95438.59;4941608;29;20139;-89
2022/03/24 07:49:32;;;;;;;11.30;6.72;;;;;;;7.58;39.64;95434.97;4959182;29;20057;-90
2022/03/24 07:51:58;;;;;;;14.85;6.63;;;;;;;7.62;40.33;95433.53;4941392;29;20053;-89
2022/03/24 07:54:55;;;;;;;16.95;7.45;;;;;;;7.76;40.88;95442.75;4941609;29;20035;-89
2022/03/24 07:57:21;;;;;;;13.15;6.47;;;;;;;8.05;40.64;95434.31;4950520;29;20153;-90
2022/03/24 07:59:46;;;;;;;17.38;7.00;;;;;;;8.19;39.93;95432.31;4941337;29;20031;-89
2022/03/24 08:02:12;;;;;;;20.50;7.22;;;;;;;8.37;39.48;95431.38;4941991;29;20115;-89
2022/03/24 08:04:37;;;;;;;15.30;7.43;;;;;;;8.69;39.34;95438.13;4942155;29;20142;-90
2022/03/24 08:07:03;;;;;;;16.38;8.05;;;;;;;8.69;40.33;95435.50;4941579;29;20031;-89
2022/03/24 08:09:32;;;;;;;15.88;8.20;;;;;;;8.82;38.87;95437.06;4941660;29;20042;-89
2022/03/24 08:11:57;;;;;;;16.52;8.40;;;;;;;8.80;40.38;95437.31;4925571;29;20373;-90
2022/03/24 08:14:23;;;;;;;17.77;8.20;;;;;;;8.84;39.61;95435.06;4941627;29;20118;-90
2022/03/24 08:16:48;;;;;;;15.07;8.55;;;;;;;8.98;40.70;95443.44;4941372;29;20035;-90
2022/03/24 08:19:14;;;;;;;13.40;7.50;;;;;;;9.16;40.54;95443.25;4941217;29;20027;-90
2022/03/24 08:21:41;;;;;;;15.32;8.35;;;;;;;9.09;39.36;95437.38;4941554;29;20027;-91
2022/03/24 08:24:06;;;;;;;13.93;7.82;;;;;;;9.29;40.77;95436.19;4925680;29;20035;-90
2022/03/24 08:26:33;;;;;;;16.55;9.48;;;;;;;9.38;41.12;95439.22;4925636;29;20031;-90
2022/03/24 08:28:59;;;;;;;17.02;9.68;;;;;;;9.46;40.13;95439.66;4925614;29;20031;-90
2022/03/24 08:31:25;;;;;;;23.67;10.93;;;;;;;9.59;39.82;95440.41;4941176;29;20349;-91
2022/03/24 08:33:50;;;;;;;19.73;10.68;;;;;;;9.56;39.45;95441.69;4925533;29;20055;-89
2022/03/24 08:36:15;;;;;;;18.40;11.20;;;;;;;9.60;39.14;95449.84;4941417;29;20034;-90
2022/03/24 08:38:41;;;;;;;25.17;12.68;;;;;;;9.68;38.21;95451.28;4925543;29;20035;-90
2022/03/24 08:41:06;;;;;;;21.05;11.18;;;;;;;9.73;39.14;95444.31;4941094;29;20334;-89
2022/03/24 08:43:32;;;;;;;18.63;10.48;;;;;;;9.92;36.91;95449.38;4925718;29;20031;-89
2022/03/24 08:45:57;;;;;;;21.15;12.32;;;;;;;10.13;38.49;95449.69;4941683;29;20042;-89
2022/03/24 08:48:23;;;;;;;20.98;11.73;;;;;;;10.22;38.08;95456.16;4925755;29;20341;-89
2022/03/24 08:50:48;;;;;;;28.67;13.10;;;;;;;10.29;39.79;95446.28;4925387;29;20130;-91
2022/03/24 08:53:14;;;;;;;21.27;12.70;;;;;;;10.51;38.75;95445.59;4940993;29;20031;-90
2022/03/24 08:55:39;;;;;;;21.38;11.93;;;;;;;10.56;35.95;95450.91;4925674;29;20134;-90
2022/03/24 08:58:05;;;;;;;28.58;12.30;;;;;;;10.54;37.42;95452.19;4925548;29;20507;-90
2022/03/24 09:00:30;;;;;;;18.48;10.88;;;;;;;10.49;38.63;95441.63;4924860;29;20027;-90
2022/03/24 09:02:56;;;;;;;22.42;11.50;;;;;;;10.65;38.57;95451.28;4925313;29;20356;-90
2022/03/24 09:05:23;;;;;;;19.80;11.05;;;;;;;10.57;37.36;95452.50;4940928;29;20047;-90
2022/03/24 09:07:49;;;;;;;19.35;11.70;;;;;;;10.55;37.98;95448.56;4943568;29;20126;-90
2022/03/24 09:10:15;;;;;;;19.23;11.73;;;;;;;10.88;37.95;95447.69;4928182;29;20122;-89
2022/03/24 09:12:46;;;;;;;21.35;10.90;;;;;;;10.89;36.85;95446.63;4944667;29;20027;-90
2022/03/24 09:15:17;;;;;;;17.48;10.35;;;;;;;11.31;38.61;95449.78;4961538;29;20119;-90
2022/03/24 09:17:43;;;;;;;19.88;10.45;;;;;;;11.13;35.82;95451.66;4944433;29;20039;-90
2022/03/24 09:20:10;;;;;;;19.23;10.95;;;;;;;11.27;34.94;95451.31;4928612;29;20031;-91
2022/03/24 09:22:41;;;;;;;18.48;10.57;;;;;;;11.22;35.08;95448.63;4928459;29;20046;-90
2022/03/24 09:25:07;;;;;;;18.80;10.75;;;;;;;11.29;35.75;95450.03;4944125;29;20085;-90
2022/03/24 09:27:34;;;;;;;17.90;9.65;;;;;;;11.35;34.46;95448.25;4928380;29;20031;-89
2022/03/24 09:30:00;;;;;;;20.58;9.65;;;;;;;11.80;34.72;95448.97;4928389;29;20031;-89
2022/03/24 09:32:25;;;;;;;17.58;8.35;;;;;;;11.88;31.26;95450.38;4944700;29;20035;-90
2022/03/24 09:34:51;;;;;;;15.55;8.02;;;;;;;11.76;33.40;95441.84;4944077;29;20035;-90
2022/03/24 09:37:22;;;;;;;13.73;8.10;;;;;;;11.98;32.78;95441.81;4943931;29;20334;-91
2022/03/24 09:39:48;;;;;;;15.60;8.70;;;;;;;12.33;31.27;95445.78;4944542;29;20381;-90
2022/03/24 09:42:13;;;;;;;15.95;8.70;;;;;;;12.48;33.31;95442.50;4928502;29;20035;-89
2022/03/24 09:44:41;;;;;;;15.98;8.43;;;;;;;12.33;32.34;95442.34;4928438;29;20059;-90
2022/03/24 09:47:11;;;;;;;17.05;8.45;;;;;;;12.37;34.07;95432.94;4943831;29;20348;-90
2022/03/24 09:49:37;;;;;;;13.82;8.65;;;;;;;12.52;31.75;95446.19;4928282;29;20041;-90
2022/03/24 09:52:03;;;;;;;18.98;9.55;;;;;;;12.36;33.56;95445.28;4943814;29;20038;-90
2022/03/24 09:54:28;;;;;;;19.80;10.18;;;;;;;12.44;34.45;95436.13;4927767;29;20035;-90
2022/03/24 09:56:54;;;;;;;19.92;10.15;;;;;;;12.68;35.62;95441.81;4943725;29;20034;-91
2022/03/24 09:59:20;;;;;;;20.83;11.00;;;;;;;12.81;36.64;95443.22;4927776;29;20042;-90
2022/03/24 10:01:45;;;;;;;16.65;8.93;;;;;;;12.98;31.73;95440.44;4927792;29;20031;-90
2022/03/24 10:04:18;;;;;;;15.18;8.63;;;;;;;12.87;34.24;95439.56;4943556;29;20035;-90
2022/03/24 10:07:01;;;;;;;17.00;9.93;;;;;;;12.70;32.51;95438.94;4928266;29;20041;-90
2022/03/24 10:09:37;;;;;;;17.65;9.50;;;;;;;12.92;35.33;95440.66;4927268;29;20093;-90
2022/03/24 10:12:05;;;;;;;17.92;10.32;;;;;;;12.92;33.53;95435.41;4943508;29;20038;-90
2022/03/24 10:14:30;;;;;;;17.15;9.45;;;;;;;12.80;34.22;95425.06;4927723;29;20433;-90
2022/03/24 10:17:06;;;;;;;15.93;9.13;;;;;;;13.01;34.82;95423.31;4943077;29;20035;-90
2022/03/24 10:19:31;;;;;;;21.83;9.90;;;;;;;13.11;33.02;95422.56;4943002;29;20027;-90
2022/03/24 10:21:56;;;;;;;20.58;9.90;;;;;;;13.07;34.79;95417.03;4942869;29;20082;-89
2022/03/24 10:24:23;;;;;;;17.40;10.15;;;;;;;12.94;35.11;95422.78;4943478;29;20113;-89
2022/03/24 10:26:50;;;;;;;19.10;9.07;;;;;;;13.35;37.57;95415.03;4927593;29;20129;-90
2022/03/24 10:29:20;;;;;;;24.13;9.48;;;;;;;13.05;32.32;95413.84;4943093;29;20077;-90
2022/03/24 10:32:03;;;;;;;15.77;9.13;;;;;;;13.03;32.36;95413.31;4927050;29;20027;-90
2022/03/24 10:34:36;;;;;;;15.25;9.02;;;;;;;13.85;35.88;95410.19;4927167;29;20023;-90
2022/03/24 10:37:12;;;;;;;13.80;8.97;;;;;;;13.64;29.44;95408.56;4942833;29;20027;-89
2022/03/24 10:39:38;;;;;;;16.80;9.35;;;;;;;13.51;29.20;95405.34;4927286;29;20279;-89
2022/03/24 10:42:16;;;;;;;13.88;8.80;;;;;;;13.66;33.13;95398.53;4926951;29;20448;-91
2022/03/24 10:45:01;;;;;;;14.50;8.70;;;;;;;13.88;33.76;95405.44;4927234;29;20070;-90
2022/03/24 10:47:41;;;;;;;15.68;8.43;;;;;;;14.55;28.66;95395.63;4942784;29;20027;-89
2022/03/24 10:50:39;;;;;;;21.25;9.30;;;;;;;14.30;27.96;95400.94;4926723;29;20023;-90
2022/03/24 10:53:10;;;;;;;16.88;8.80;;;;;;;14.13;31.22;95402.00;4943587;29;20031;-90
2022/03/24 10:55:42;;;;;;;15.27;8.52;;;;;;;14.04;29.33;95393.84;4926915;29;20086;-90
2022/03/24 10:58:10;;;;;;;20.00;8.20;;;;;;;14.05;29.62;95394.63;4942597;29;20043;-91
2022/03/24 11:00:38;;;;;;;15.68;8.50;;;;;;;14.09;28.53;95393.84;4942274;29;20086;-90
2022/03/24 11:03:04;;;;;;;15.38;9.70;;;;;;;14.31;32.22;95386.72;4926661;29;20031;-90
2022/03/24 11:05:30;;;;;;;16.27;9.18;;;;;;;14.64;30.17;95384.56;4926801;29;20023;-90
2022/03/24 11:07:56;;;;;;;15.50;8.60;;;;;;;14.54;30.75;95385.34;4926439;29;20041;-90
2022/03/24 11:10:23;;;;;;;13.10;8.80;;;;;;;14.93;28.36;95373.41;4926455;29;20033;-91
2022/03/24 11:13:00;;;;;;;13.95;9.15;;;;;;;14.96;27.67;95373.66;4942183;29;20062;-89
2022/03/24 11:15:26;;;;;;;15.55;9.23;;;;;;;14.85;26.84;95372.13;4942420;29;20525;-90
2022/03/24 11:17:51;;;;;;;17.10;9.40;;;;;;;15.09;28.09;95364.38;4926477;29;20425;-90
2022/03/24 11:20:17;;;;;;;14.35;8.50;;;;;;;15.56;27.80;95369.41;4941838;29;20042;-89
2022/03/24 11:23:02;;;;;;;17.90;8.88;;;;;;;15.37;26.11;95362.13;4959008;29;20118;-90
2022/03/24 11:25:29;;;;;;;14.05;7.07;;;;;;;15.34;26.63;95361.88;4958530;29;20051;-90
2022/03/24 11:27:56;;;;;;;19.92;8.25;;;;;;;15.35;28.08;95358.97;4942609;29;20074;-90
2022/03/24 11:30:23;;;;;;;15.75;8.32;;;;;;;15.34;26.50;95346.81;4925908;29;20031;-90
2022/03/24 11:32:50;;;;;;;14.90;7.88;;;;;;;15.49;25.80;95359.13;4941829;29;20039;-90
2022/03/24 11:35:16;;;;;;;15.65;8.57;;;;;;;15.80;25.38;95355.50;4927025;28;20423;-90